メインページ
METAR-TAF:

METAR-TAF

空港 :

Peace River, アルバータ州, カナダ

緯度: 56-14N, 経度: 117-26W, 海抜: 571m

現時点の気象観測

当レポートは1時間10分前の15:00(UTC)に作成
南/南西の風 5kt、から西/南西の間で変化する
気温 10°C
湿度 82%
気圧 1008 hPa
視程: 24.1km
高度6000ftの雲はほとんどない
高度11000ftの雲はほとんどない
高度21000ftの雲は散在している

METAR: CYPE 111500Z 21005KT 190V250 15SM FEW060 FEW110 SCT210 10/07 A2976 RMK CU1AC1CI4 CU TR AC TR SLP093 DENSITY ALT 2000FT

時間: 10:10 (16:10 UTC)

予報

当レポートは3時間31分前の12:39(UTC)に作成
予報は11日の 13時(UTC)から 12日の 01時(UTC)まで有効
南西の風 6kt
視程: 10km
高度12000ftの雲はほとんどない
高度21000ftの雲は散在している
11日の 16時(UTC)から 11日の 18時(UTC)まで徐々に
南西の風 10kt、最大20ktの突風を伴う
11日の 2200時(UTC)から
南西の風 10kt、最大20ktの突風を伴う
視程: 10km
高度6000ftの千切れ雲あり
11日の 22時(UTC)から 12日の 01時(UTC)まで一時的に
視程: 10km
弱いにわか雨

TAF: CYPE 111239Z 1113/1201 23006KT P6SM FEW120 SCT210 BECMG 1116/1118 23010G20KT FM112200 22010G20KT P6SM BKN060 TEMPO 1122/1201 P6SM -SHRA RMK NXT FCST BY 111900Z

4,000以上の空港の気象観測と天気予報(METAR報とTAF報)

利用可能な観測所は地図上に黄色い丸と赤い丸で示す。

丸の上にカーソルを重ねると観測所名を参照できる。

次にクリックすると気象観測と天気予報を参照できる。

マップの切り替え:黒色「×」印の緑ボタンをクリックして拡大、「-」印の緑ボタンをクリックして縮小、緑色の三角印をクリックして隣りの地図に切り替え


METAR-TAF: